Time;durP1;ratioP1;P1;durP2;ratioP2;P2;SDS_P1;SDS_P2;PMS_P1;PMS_P2;Temp;Humidity;BMP_temperature;BMP_pressure;BME280_temperature;BME280_humidity;BME280_pressure;Samples;Min_cycle;Max_cycle;Signal;HPM_P1;HPM_P2
2023/01/26 00:00:53;;;;;;;11.10;8.32;;;16.00;43.50;;;;;;5052536;28;20646;-65
2023/01/26 00:03:20;;;;;;;11.13;8.38;;;16.00;43.50;;;;;;5052353;28;20219;-65
2023/01/26 00:08:18;;;;;;;12.40;9.25;;;16.00;43.60;;;;;;4991748;28;20248;-65
2023/01/26 00:10:49;;;;;;;12.52;8.88;;;16.00;43.60;;;;;;4994361;28;20221;-65
2023/01/26 00:13:16;;;;;;;13.10;9.38;;;16.00;43.70;;;;;;4994326;28;20267;-65
2023/01/26 00:15:44;;;;;;;11.23;8.32;;;15.90;43.60;;;;;;4976756;28;20220;-64
2023/01/26 00:18:12;;;;;;;14.32;9.30;;;15.90;43.60;;;;;;4994553;28;20197;-65
2023/01/26 00:20:40;;;;;;;12.75;9.43;;;15.90;43.80;;;;;;4994203;28;20228;-65
2023/01/26 00:23:07;;;;;;;12.38;9.18;;;15.90;43.70;;;;;;4993941;28;20288;-62
2023/01/26 00:25:34;;;;;;;11.52;9.07;;;15.90;43.80;;;;;;4994193;28;20216;-63
2023/01/26 00:28:02;;;;;;;12.63;9.43;;;15.90;43.80;;;;;;4994401;28;20283;-63
2023/01/26 00:30:30;;;;;;;11.40;9.07;;;15.80;43.80;;;;;;4977229;28;20236;-63
2023/01/26 00:32:58;;;;;;;9.88;8.38;;;15.80;43.90;;;;;;4993377;28;20201;-64
2023/01/26 00:35:26;;;;;;;11.57;9.13;;;15.80;43.90;;;;;;4993315;28;20204;-64
2023/01/26 00:37:53;;;;;;;12.50;9.98;;;15.80;43.90;;;;;;4994186;28;20196;-63
2023/01/26 00:40:20;;;;;;;12.00;9.60;;;15.80;43.90;;;;;;4976672;28;20213;-63
2023/01/26 00:42:47;;;;;;;10.77;8.70;;;15.80;43.90;;;;;;4976618;28;20205;-63
2023/01/26 00:45:15;;;;;;;10.25;8.98;;;15.80;44.00;;;;;;4976453;28;20217;-63
2023/01/26 00:47:45;;;;;;;11.85;9.20;;;15.70;44.00;;;;;;4993884;28;20181;-63
2023/01/26 00:50:12;;;;;;;10.88;8.98;;;15.70;44.10;;;;;;4976434;28;20252;-63
2023/01/26 00:52:40;;;;;;;10.98;8.98;;;15.70;44.70;;;;;;4993753;28;20198;-67
2023/01/26 00:55:08;;;;;;;12.55;9.80;;;15.70;44.10;;;;;;4976561;28;20194;-62
2023/01/26 00:57:35;;;;;;;12.75;9.30;;;15.70;44.00;;;;;;4994330;28;20276;-63
2023/01/26 01:00:05;;;;;;;12.20;9.38;;;15.60;44.00;;;;;;4997489;28;20189;-64
2023/01/26 01:02:32;;;;;;;12.90;9.35;;;15.70;44.20;;;;;;4996350;28;20683;-63
2023/01/26 01:05:00;;;;;;;12.38;9.02;;;15.60;44.00;;;;;;4979971;28;20249;-63
2023/01/26 01:07:26;;;;;;;13.35;9.30;;;15.60;44.10;;;;;;4980295;28;20615;-62
2023/01/26 01:09:55;;;;;;;11.80;9.52;;;15.60;44.00;;;;;;4979845;28;20198;-63
2023/01/26 01:12:22;;;;;;;10.45;8.80;;;15.60;44.10;;;;;;4997344;28;20259;-63
2023/01/26 01:14:50;;;;;;;11.60;9.27;;;15.60;44.00;;;;;;4997228;28;20216;-63
2023/01/26 01:17:17;;;;;;;12.52;9.15;;;15.60;44.10;;;;;;4997435;28;20611;-64
2023/01/26 01:19:45;;;;;;;11.38;9.23;;;15.60;44.20;;;;;;4979747;28;20193;-63
2023/01/26 01:22:13;;;;;;;11.13;9.02;;;15.60;44.20;;;;;;4980006;28;20217;-63
2023/01/26 01:24:41;;;;;;;12.02;9.55;;;15.60;44.30;;;;;;4979911;28;20213;-63
2023/01/26 01:27:10;;;;;;;11.43;8.80;;;15.50;44.20;;;;;;4979576;28;20737;-63
2023/01/26 01:29:37;;;;;;;12.23;9.52;;;15.50;44.20;;;;;;4997100;28;20663;-63
2023/01/26 01:32:05;;;;;;;10.40;9.18;;;15.50;44.90;;;;;;4979606;28;20248;-63
2023/01/26 01:34:32;;;;;;;11.00;8.73;;;15.50;44.40;;;;;;4996842;28;20227;-64
2023/01/26 01:36:59;;;;;;;11.30;9.27;;;15.50;44.40;;;;;;4979540;28;20233;-64
2023/01/26 01:39:27;;;;;;;12.88;10.20;;;15.50;44.40;;;;;;4997079;28;20186;-63
2023/01/26 01:41:54;;;;;;;11.88;9.73;;;15.50;45.00;;;;;;4979277;28;20190;-63
2023/01/26 01:44:23;;;;;;;10.68;8.80;;;15.40;44.30;;;;;;4979397;28;20225;-63
2023/01/26 01:46:53;;;;;;;12.27;9.60;;;15.40;44.30;;;;;;4979094;28;20221;-62
2023/01/26 01:49:22;;;;;;;12.05;9.40;;;15.40;44.40;;;;;;4996476;28;20610;-62
2023/01/26 01:51:52;;;;;;;11.50;9.13;;;15.40;44.40;;;;;;4995182;28;20198;-63
2023/01/26 01:54:22;;;;;;;12.40;9.48;;;15.40;44.40;;;;;;4995516;28;20217;-63
2023/01/26 01:56:51;;;;;;;12.50;9.20;;;15.40;44.40;;;;;;4979029;28;20575;-63
2023/01/26 01:59:20;;;;;;;10.45;9.00;;;15.40;44.30;;;;;;4995243;28;20683;-63
2023/01/26 02:01:49;;;;;;;11.43;9.20;;;15.40;44.40;;;;;;4996763;28;20189;-62
2023/01/26 02:04:16;;;;;;;10.27;8.23;;;15.30;44.40;;;;;;4995133;28;20229;-63
2023/01/26 02:06:47;;;;;;;11.23;9.13;;;15.30;44.40;;;;;;4996358;28;20598;-62
2023/01/26 02:10:17;;;;;;;10.80;9.25;;;15.30;44.40;;;;;;4996125;28;20244;-63
2023/01/26 02:12:26;;;;;;;10.77;8.73;;;15.40;44.40;;;;;;4978766;28;20228;-63
2023/01/26 02:14:53;;;;;;;11.32;9.02;;;15.30;44.50;;;;;;4978677;28;20221;-62
2023/01/26 02:17:22;;;;;;;10.70;8.65;;;15.30;44.50;;;;;;4978843;28;20186;-63
2023/01/26 02:19:54;;;;;;;10.68;8.50;;;15.30;44.50;;;;;;4995112;28;20199;-63
2023/01/26 02:22:25;;;;;;;11.10;9.10;;;15.30;44.60;;;;;;4978687;28;20212;-63
2023/01/26 02:24:53;;;;;;;10.82;8.20;;;15.20;44.50;;;;;;4978678;28;20569;-63
2023/01/26 02:27:21;;;;;;;11.32;8.88;;;15.30;44.60;;;;;;4978590;28;20236;-63
2023/01/26 02:29:48;;;;;;;10.27;8.93;;;15.20;45.10;;;;;;4978497;28;20700;-63
2023/01/26 02:32:15;;;;;;;10.80;8.88;;;15.20;44.40;;;;;;4978542;28;20201;-62
2023/01/26 02:34:42;;;;;;;12.95;9.48;;;15.20;44.40;;;;;;4978348;28;20247;-63
2023/01/26 02:37:13;;;;;;;11.23;8.80;;;15.20;44.40;;;;;;4978393;28;20196;-63
2023/01/26 02:39:43;;;;;;;11.75;8.70;;;15.20;44.40;;;;;;4978749;28;20190;-63
2023/01/26 02:44:55;;;;;;;10.30;8.45;;;15.20;44.60;;;;;;4994671;28;20213;-63
2023/01/26 02:47:22;;;;;;;11.75;9.32;;;15.20;44.60;;;;;;4978584;28;20221;-63
2023/01/26 02:49:50;;;;;;;11.65;8.68;;;15.20;44.60;;;;;;4996059;28;20193;-63
2023/01/26 02:52:19;;;;;;;10.30;8.82;;;15.20;44.70;;;;;;4994713;28;20201;-63
2023/01/26 02:57:34;;;;;;;12.05;9.00;;;15.20;44.60;;;;;;4995171;28;20193;-63
2023/01/26 03:00:02;;;;;;;10.02;8.77;;;15.10;44.60;;;;;;4978339;28;20200;-63
2023/01/26 03:02:31;;;;;;;10.68;8.20;;;15.10;44.60;;;;;;4978294;28;20680;-63
2023/01/26 03:04:57;;;;;;;11.30;9.10;;;15.10;44.70;;;;;;4994570;28;20248;-63
2023/01/26 03:07:25;;;;;;;9.43;8.15;;;15.10;44.70;;;;;;4978016;28;20312;-63
2023/01/26 03:09:52;;;;;;;10.65;8.65;;;15.10;44.70;;;;;;4995046;28;20552;-63
2023/01/26 03:12:19;;;;;;;9.95;8.75;;;15.10;44.70;;;;;;4978512;28;20200;-62
2023/01/26 03:15:33;;;;;;;10.82;8.57;;;15.10;44.70;;;;;;4994495;28;20711;-64
2023/01/26 03:17:35;;;;;;;12.02;8.85;;;15.10;44.80;;;;;;4978132;28;20228;-63
2023/01/26 03:28:21;;;;;;;9.95;8.60;;;15.00;44.80;;;;;;4994226;28;20205;-63
2023/01/26 03:30:49;;;;;;;8.63;7.72;;;15.00;44.90;;;;;;4994267;28;20204;-63
2023/01/26 03:33:18;;;;;;;9.35;7.65;;;15.00;44.80;;;;;;4978123;28;20224;-63
2023/01/26 03:35:45;;;;;;;9.15;7.50;;;15.00;44.80;;;;;;4994381;28;20281;-63
2023/01/26 03:38:12;;;;;;;9.05;7.53;;;15.00;44.90;;;;;;4978383;28;20201;-63
2023/01/26 03:57:20;;;;;;;8.93;7.70;;;14.90;44.80;;;;;;4993539;28;20200;-63
2023/01/26 03:59:48;;;;;;;9.93;7.85;;;14.90;44.80;;;;;;4994023;28;20247;-63
2023/01/26 04:10:45;;;;;;;8.82;7.25;;;14.90;44.80;;;;;;4994630;28;20177;-63
2023/01/26 04:21:35;;;;;;;8.65;7.30;;;14.80;45.30;;;;;;4993627;28;20193;-63
2023/01/26 04:24:13;;;;;;;8.50;7.40;;;14.80;45.40;;;;;;4993074;28;20220;-63
2023/01/26 04:26:40;;;;;;;10.55;7.88;;;14.80;45.60;;;;;;4976928;28;20272;-63
2023/01/26 04:29:12;;;;;;;8.02;7.13;;;14.80;45.50;;;;;;4977195;28;20236;-63
2023/01/26 04:31:40;;;;;;;8.90;7.28;;;14.80;45.50;;;;;;4976503;28;20202;-62
2023/01/26 04:34:11;;;;;;;8.00;6.93;;;14.90;45.50;;;;;;4976218;28;20217;-63
2023/01/26 04:36:39;;;;;;;8.25;7.00;;;14.80;45.40;;;;;;4992671;28;20722;-63
2023/01/26 04:39:07;;;;;;;8.23;6.97;;;14.90;45.40;;;;;;4992584;28;20293;-62
2023/01/26 04:41:36;;;;;;;7.65;6.57;;;14.90;45.30;;;;;;4992878;28;20694;-63
2023/01/26 04:44:09;;;;;;;7.60;6.75;;;14.90;45.30;;;;;;4976407;28;20312;-63
2023/01/26 04:46:37;;;;;;;8.35;7.25;;;15.00;45.30;;;;;;4993192;28;20598;-62
2023/01/26 04:49:06;;;;;;;8.32;7.22;;;15.00;45.30;;;;;;4976498;28;20193;-62
2023/01/26 04:51:34;;;;;;;8.43;7.05;;;15.00;45.10;;;;;;4976470;28;20193;-63
2023/01/26 04:54:03;;;;;;;7.88;6.72;;;15.00;45.10;;;;;;4992400;28;20715;-63
2023/01/26 04:56:32;;;;;;;8.38;7.10;;;15.00;44.90;;;;;;4993242;28;20198;-62
2023/01/26 04:59:02;;;;;;;7.30;6.45;;;15.10;45.00;;;;;;4976633;28;20288;-63
2023/01/26 05:01:31;;;;;;;8.50;6.57;;;15.10;44.90;;;;;;4992649;28;20244;-63
2023/01/26 05:03:59;;;;;;;7.88;7.03;;;15.10;44.90;;;;;;4992519;28;20217;-63
2023/01/26 05:06:28;;;;;;;8.85;7.40;;;15.10;44.90;;;;;;4992243;28;20707;-64
2023/01/26 05:08:55;;;;;;;8.18;7.10;;;15.10;44.70;;;;;;4992665;28;20205;-64
2023/01/26 05:11:25;;;;;;;8.77;6.53;;;15.20;44.70;;;;;;4977183;28;20229;-64
2023/01/26 05:13:57;;;;;;;8.43;7.03;;;15.10;44.50;;;;;;4976775;28;20618;-64
2023/01/26 05:16:44;;;;;;;7.70;6.30;;;15.10;44.40;;;;;;4977469;28;20667;-64
2023/01/26 05:19:37;;;;;;;7.85;6.90;;;15.10;44.20;;;;;;4988065;28;20198;-64
2023/01/26 05:22:23;;;;;;;7.10;6.25;;;15.20;44.30;;;;;;4994445;28;20228;-64
2023/01/26 05:25:09;;;;;;;7.88;6.55;;;15.20;44.30;;;;;;4994430;28;20185;-64
2023/01/26 05:27:43;;;;;;;7.82;7.03;;;15.20;44.30;;;;;;4992612;28;20214;-63
2023/01/26 05:30:12;;;;;;;7.13;6.32;;;15.20;44.30;;;;;;4992842;28;20617;-62
2023/01/26 05:32:39;;;;;;;7.18;6.45;;;15.20;44.20;;;;;;4976133;28;20201;-64
2023/01/26 05:35:06;;;;;;;7.30;6.55;;;15.20;44.20;;;;;;4993900;28;20668;-62
2023/01/26 05:37:34;;;;;;;7.32;6.40;;;15.20;44.20;;;;;;4992441;28;20578;-62
2023/01/26 05:40:01;;;;;;;7.47;6.72;;;15.20;44.00;;;;;;4976319;28;20193;-63
2023/01/26 05:42:28;;;;;;;7.22;6.45;;;15.20;44.00;;;;;;4976886;28;20571;-63
2023/01/26 05:45:09;;;;;;;7.85;6.60;;;15.30;44.00;;;;;;4978556;28;20233;-63
2023/01/26 05:47:39;;;;;;;7.25;6.55;;;15.30;44.20;;;;;;4996905;28;20740;-63
2023/01/26 05:50:07;;;;;;;7.05;6.22;;;15.20;44.20;;;;;;4998474;28;20190;-63
2023/01/26 05:52:35;;;;;;;7.22;6.20;;;15.30;44.20;;;;;;4986358;28;20244;-63
2023/01/26 05:55:02;;;;;;;8.00;6.15;;;15.30;44.20;;;;;;4980446;28;20213;-63
2023/01/26 05:57:29;;;;;;;7.50;6.25;;;15.30;44.10;;;;;;4995986;28;20204;-63
2023/01/26 06:00:00;;;;;;;7.63;6.15;;;15.30;44.20;;;;;;4995693;28;20205;-63
2023/01/26 06:02:29;;;;;;;8.40;6.78;;;15.30;44.20;;;;;;4995828;28;20193;-63
2023/01/26 06:04:57;;;;;;;7.22;6.47;;;15.30;44.20;;;;;;4979556;28;20218;-63
2023/01/26 06:07:25;;;;;;;7.00;6.20;;;15.30;44.20;;;;;;4979287;28;20221;-63
2023/01/26 06:10:31;;;;;;;7.40;6.30;;;15.30;44.10;;;;;;4988568;28;20207;-63
2023/01/26 06:13:16;;;;;;;7.82;6.95;;;15.30;44.10;;;;;;4979778;28;20217;-63
2023/01/26 06:15:52;;;;;;;7.43;6.63;;;15.30;44.40;;;;;;4995598;28;20186;-63
2023/01/26 06:18:25;;;;;;;6.38;5.78;;;15.30;43.60;;;;;;4979583;28;20260;-63
2023/01/26 06:20:58;;;;;;;8.00;6.85;;;15.40;43.80;;;;;;4979160;28;20285;-63
2023/01/26 06:23:26;;;;;;;8.07;6.68;;;15.40;44.00;;;;;;4995517;28;20765;-63
2023/01/26 06:25:58;;;;;;;8.38;6.50;;;15.40;44.40;;;;;;4979407;28;20285;-63
2023/01/26 06:28:25;;;;;;;6.90;6.03;;;15.40;44.50;;;;;;4997717;28;20284;-63
2023/01/26 06:30:56;;;;;;;6.95;6.20;;;15.40;44.50;;;;;;4998451;28;20181;-64
2023/01/26 06:33:25;;;;;;;7.72;6.20;;;15.40;44.60;;;;;;4980303;28;20224;-64
2023/01/26 06:35:53;;;;;;;6.05;5.40;;;15.40;44.70;;;;;;4995724;28;20371;-63
2023/01/26 06:38:20;;;;;;;6.57;5.80;;;15.50;44.80;;;;;;4995357;28;20204;-63
2023/01/26 06:40:47;;;;;;;6.72;5.55;;;15.50;45.00;;;;;;4979845;28;20219;-63
2023/01/26 06:43:14;;;;;;;7.30;5.70;;;15.50;45.10;;;;;;4981297;28;20213;-63
2023/01/26 06:45:42;;;;;;;6.65;5.90;;;15.50;45.30;;;;;;4992563;28;20601;-63
2023/01/26 06:48:09;;;;;;;7.10;6.38;;;15.50;45.40;;;;;;4979164;28;20293;-63
2023/01/26 06:50:38;;;;;;;7.68;5.97;;;15.60;45.20;;;;;;4979066;28;20232;-63
2023/01/26 06:53:26;;;;;;;7.03;6.32;;;15.60;44.70;;;;;;4996477;28;20214;-63
2023/01/26 06:56:14;;;;;;;8.95;6.00;;;15.60;44.20;;;;;;4988738;28;20198;-62
2023/01/26 06:58:56;;;;;;;6.60;5.82;;;15.70;44.20;;;;;;4979572;28;20185;-62
2023/01/26 07:01:48;;;;;;;7.65;6.15;;;15.60;44.20;;;;;;4978551;28;20205;-63
2023/01/26 07:04:17;;;;;;;7.10;6.38;;;15.60;44.10;;;;;;4994690;28;20352;-63
2023/01/26 07:06:46;;;;;;;7.00;5.97;;;15.50;44.10;;;;;;4995640;28;20288;-62
2023/01/26 07:09:15;;;;;;;7.03;5.68;;;15.60;44.20;;;;;;4994704;28;20185;-63
2023/01/26 07:11:42;;;;;;;6.35;5.75;;;15.50;44.00;;;;;;4995896;28;20221;-63
2023/01/26 07:14:09;;;;;;;6.55;5.82;;;15.50;43.90;;;;;;4995877;28;20209;-63
2023/01/26 07:16:36;;;;;;;6.05;5.45;;;15.50;44.00;;;;;;4978275;28;20215;-63
2023/01/26 07:19:03;;;;;;;6.38;5.78;;;15.50;44.10;;;;;;4995771;28;20190;-64
2023/01/26 07:21:30;;;;;;;7.18;6.15;;;15.50;44.10;;;;;;4995987;28;20190;-63
2023/01/26 07:23:59;;;;;;;6.78;6.07;;;15.50;43.80;;;;;;4996147;28;20285;-63
2023/01/26 07:26:26;;;;;;;5.90;5.20;;;15.50;43.80;;;;;;4995637;28;20198;-64
2023/01/26 07:28:54;;;;;;;6.40;5.80;;;15.60;44.10;;;;;;4995286;28;20301;-63
2023/01/26 07:31:21;;;;;;;7.20;6.30;;;15.50;43.90;;;;;;4978079;28;20296;-62
2023/01/26 07:33:48;;;;;;;7.05;5.97;;;15.60;44.00;;;;;;4995381;28;20219;-64
2023/01/26 07:36:15;;;;;;;6.95;5.38;;;15.60;44.10;;;;;;4994201;28;20609;-63
2023/01/26 07:38:43;;;;;;;5.95;5.35;;;15.60;44.00;;;;;;4996805;28;20660;-63
2023/01/26 07:41:12;;;;;;;6.93;5.78;;;15.50;43.90;;;;;;4995182;28;20189;-63
2023/01/26 07:43:40;;;;;;;7.32;5.95;;;15.50;43.90;;;;;;4977799;28;20224;-63
2023/01/26 07:46:11;;;;;;;6.55;5.85;;;15.50;43.70;;;;;;4995223;28;20174;-64
2023/01/26 07:48:40;;;;;;;7.20;5.18;;;15.50;43.70;;;;;;4994820;28;20213;-64
2023/01/26 07:51:09;;;;;;;6.20;5.60;;;15.60;43.80;;;;;;4977423;28;20300;-62
2023/01/26 07:53:38;;;;;;;6.40;5.72;;;15.60;43.70;;;;;;4995354;28;20275;-64
2023/01/26 07:56:11;;;;;;;6.95;5.63;;;15.60;43.80;;;;;;4995204;28;20193;-63
2023/01/26 07:58:38;;;;;;;7.03;5.40;;;15.60;43.50;;;;;;4993658;28;20214;-62
2023/01/26 08:01:07;;;;;;;5.93;5.30;;;15.60;43.50;;;;;;4994174;28;20198;-62
2023/01/26 08:03:35;;;;;;;7.32;6.15;;;15.60;43.40;;;;;;4977603;28;20312;-63
2023/01/26 08:06:02;;;;;;;6.00;5.20;;;15.60;43.50;;;;;;4994752;28;20660;-62
2023/01/26 08:08:30;;;;;;;5.80;5.00;;;15.60;43.40;;;;;;4976862;28;20213;-62
2023/01/26 08:10:59;;;;;;;6.32;5.65;;;15.60;43.40;;;;;;4993701;28;20247;-63
2023/01/26 08:13:27;;;;;;;8.02;5.65;;;15.70;43.50;;;;;;4977903;28;20248;-63
2023/01/26 08:15:55;;;;;;;6.00;5.30;;;15.60;43.20;;;;;;4995491;28;20186;-64
2023/01/26 08:18:22;;;;;;;5.78;5.20;;;15.60;43.40;;;;;;4977464;28;20229;-63
2023/01/26 08:20:51;;;;;;;5.78;5.03;;;15.60;43.50;;;;;;4978141;28;20224;-63
2023/01/26 08:23:18;;;;;;;5.88;5.13;;;15.70;43.20;;;;;;4994703;28;20214;-63
2023/01/26 08:25:45;;;;;;;6.07;4.90;;;15.70;43.30;;;;;;4995341;28;20217;-63
2023/01/26 08:28:12;;;;;;;6.13;5.53;;;15.70;44.00;;;;;;4977287;28;20221;-62
2023/01/26 08:30:40;;;;;;;6.00;5.40;;;15.70;43.10;;;;;;4994733;28;20193;-62
2023/01/26 08:33:07;;;;;;;6.30;5.15;;;15.70;43.20;;;;;;4978220;28;20217;-63
2023/01/26 08:35:35;;;;;;;5.88;5.28;;;15.70;43.30;;;;;;4977742;28;20197;-63
2023/01/26 08:38:03;;;;;;;7.30;5.50;;;15.70;43.30;;;;;;4995372;28;20255;-62
2023/01/26 08:40:30;;;;;;;6.57;5.60;;;15.60;43.10;;;;;;4978871;28;20208;-63
2023/01/26 08:43:01;;;;;;;6.22;5.35;;;15.70;43.00;;;;;;4977338;28;20209;-63
2023/01/26 08:45:28;;;;;;;6.63;5.35;;;15.70;43.10;;;;;;4977061;28;20209;-62
2023/01/26 08:47:56;;;;;;;6.28;5.68;;;15.70;43.00;;;;;;4976818;28;20221;-62
2023/01/26 08:50:24;;;;;;;6.25;5.20;;;15.70;43.00;;;;;;4976657;28;20197;-63
2023/01/26 08:52:51;;;;;;;5.68;5.18;;;15.70;43.50;;;;;;4993960;28;20193;-63
2023/01/26 08:55:19;;;;;;;6.53;5.75;;;15.70;42.90;;;;;;4976511;28;20291;-62
2023/01/26 08:57:46;;;;;;;5.55;4.85;;;15.70;42.90;;;;;;4994003;28;20181;-62
2023/01/26 09:00:15;;;;;;;5.55;4.95;;;15.70;43.00;;;;;;4993725;28;20275;-63
2023/01/26 09:02:43;;;;;;;5.75;5.15;;;15.70;43.00;;;;;;4993604;28;20190;-63
2023/01/26 09:05:11;;;;;;;6.45;5.75;;;15.70;43.10;;;;;;4976179;28;20198;-62
2023/01/26 09:07:38;;;;;;;5.30;4.70;;;15.70;43.10;;;;;;4976129;28;20311;-62
2023/01/26 09:10:09;;;;;;;6.90;5.25;;;15.70;43.20;;;;;;4993793;28;20197;-62
2023/01/26 09:12:36;;;;;;;5.72;5.22;;;15.70;43.10;;;;;;4976226;28;20635;-63
2023/01/26 09:15:04;;;;;;;5.22;4.72;;;15.70;43.10;;;;;;4993940;28;20213;-63
2023/01/26 09:17:31;;;;;;;5.20;4.47;;;15.70;43.10;;;;;;4994035;28;20272;-63
2023/01/26 09:19:58;;;;;;;5.68;4.75;;;15.70;42.90;;;;;;4996279;28;20190;-62
2023/01/26 09:22:27;;;;;;;4.60;4.18;;;15.70;42.90;;;;;;4997323;28;20221;-63
2023/01/26 09:24:54;;;;;;;5.07;4.40;;;15.80;43.00;;;;;;4979589;28;20218;-63
2023/01/26 09:27:21;;;;;;;4.28;3.83;;;15.80;43.00;;;;;;4995891;28;20675;-62
2023/01/26 09:29:48;;;;;;;6.20;4.90;;;15.80;43.10;;;;;;4997221;28;20212;-63
2023/01/26 09:32:15;;;;;;;5.13;4.50;;;15.80;42.70;;;;;;4997210;28;20186;-62
2023/01/26 09:34:42;;;;;;;6.18;4.60;;;15.80;42.50;;;;;;4997196;28;20268;-62
2023/01/26 09:37:10;;;;;;;5.05;4.40;;;15.80;42.60;;;;;;4997369;28;20196;-62
2023/01/26 09:39:38;;;;;;;4.95;4.15;;;15.80;42.60;;;;;;4997147;28;20194;-63
2023/01/26 09:42:25;;;;;;;5.50;4.68;;;15.80;42.60;;;;;;4979738;28;20208;-62
2023/01/26 09:44:57;;;;;;;5.55;4.47;;;15.80;42.50;;;;;;4980223;28;20249;-63
2023/01/26 09:47:26;;;;;;;4.88;4.38;;;15.90;42.60;;;;;;4996161;28;20205;-62
2023/01/26 09:49:56;;;;;;;4.70;4.20;;;15.90;42.60;;;;;;4979624;28;20252;-63
2023/01/26 09:52:26;;;;;;;4.60;4.15;;;15.90;42.50;;;;;;4979625;28;20288;-63
2023/01/26 09:54:57;;;;;;;5.30;4.10;;;15.90;42.50;;;;;;4996966;28;20305;-63
2023/01/26 09:57:27;;;;;;;4.57;4.10;;;15.90;42.60;;;;;;4995560;28;20193;-63
2023/01/26 09:59:57;;;;;;;5.65;4.70;;;15.90;42.60;;;;;;4996672;28;20244;-63
2023/01/26 10:02:30;;;;;;;5.20;4.35;;;15.90;42.50;;;;;;4996491;28;20200;-63
2023/01/26 10:04:58;;;;;;;4.85;4.35;;;15.90;42.50;;;;;;4996546;28;20341;-63
2023/01/26 10:07:25;;;;;;;6.07;4.28;;;15.90;42.50;;;;;;4995253;28;20580;-63
2023/01/26 10:09:52;;;;;;;4.95;4.45;;;16.00;42.50;;;;;;4996582;28;20217;-63
2023/01/26 10:12:24;;;;;;;6.18;4.90;;;15.90;42.50;;;;;;4978799;28;20201;-63
2023/01/26 10:14:52;;;;;;;4.57;4.18;;;16.00;42.30;;;;;;4978763;28;20217;-63
2023/01/26 10:17:21;;;;;;;6.15;4.88;;;16.00;42.30;;;;;;4978841;28;20197;-63
2023/01/26 10:19:50;;;;;;;5.03;4.40;;;16.00;42.40;;;;;;4978608;28;20663;-62
2023/01/26 10:22:20;;;;;;;5.05;4.47;;;15.90;42.50;;;;;;4996101;28;20221;-63
2023/01/26 10:24:47;;;;;;;5.82;4.88;;;16.00;42.30;;;;;;4994824;28;20233;-64
2023/01/26 10:27:14;;;;;;;5.38;4.60;;;16.00;42.30;;;;;;4996048;28;20668;-63
2023/01/26 10:29:43;;;;;;;5.47;4.85;;;16.00;42.30;;;;;;4995919;28;20552;-63
2023/01/26 10:32:13;;;;;;;4.78;4.13;;;16.00;42.30;;;;;;4995471;28;20194;-63
2023/01/26 10:34:41;;;;;;;4.72;4.22;;;16.00;42.30;;;;;;4994538;28;20635;-64
2023/01/26 10:37:21;;;;;;;5.10;4.60;;;16.00;42.20;;;;;;4995957;28;20202;-63
2023/01/26 10:39:57;;;;;;;5.25;4.47;;;16.00;42.30;;;;;;4995838;28;20173;-63
2023/01/26 10:42:25;;;;;;;4.63;4.22;;;16.00;42.30;;;;;;4996228;28;20173;-63
2023/01/26 10:44:54;;;;;;;5.05;4.18;;;16.00;42.30;;;;;;4995650;28;20326;-63
2023/01/26 10:47:21;;;;;;;5.15;4.35;;;16.00;42.40;;;;;;4995740;28;20727;-64
2023/01/26 10:49:48;;;;;;;4.65;4.10;;;16.00;42.30;;;;;;4996012;28;20288;-64
2023/01/26 10:52:17;;;;;;;4.40;4.00;;;16.00;42.30;;;;;;4995732;28;20197;-63
2023/01/26 10:54:44;;;;;;;4.20;3.80;;;15.90;42.30;;;;;;4995877;28;20209;-64
2023/01/26 10:57:18;;;;;;;4.55;3.85;;;16.00;42.40;;;;;;4994520;28;20197;-63
2023/01/26 10:59:50;;;;;;;4.95;4.28;;;16.00;42.40;;;;;;4978494;28;20201;-63
2023/01/26 11:02:23;;;;;;;5.25;4.50;;;16.00;42.30;;;;;;4995667;28;20174;-64
2023/01/26 11:05:15;;;;;;;6.30;4.50;;;16.00;42.30;;;;;;4995458;28;20229;-64
2023/01/26 11:07:42;;;;;;;4.57;4.18;;;16.00;42.80;;;;;;4995346;28;20193;-64
2023/01/26 11:10:22;;;;;;;4.28;3.88;;;16.00;42.10;;;;;;4995135;28;20213;-64
2023/01/26 11:12:49;;;;;;;4.25;3.60;;;16.00;42.10;;;;;;4994116;28;20313;-63
2023/01/26 11:15:17;;;;;;;4.43;3.97;;;16.00;41.90;;;;;;4994263;28;20252;-64
2023/01/26 11:17:50;;;;;;;4.40;4.00;;;16.00;42.10;;;;;;4995625;28;20225;-63
2023/01/26 11:20:39;;;;;;;4.43;4.03;;;16.00;41.90;;;;;;4995670;28;20190;-63
2023/01/26 11:23:10;;;;;;;3.70;3.35;;;16.10;42.00;;;;;;4993946;28;20364;-63
2023/01/26 11:25:40;;;;;;;4.30;3.90;;;16.10;42.00;;;;;;4995393;28;20201;-66
2023/01/26 11:28:14;;;;;;;4.93;3.95;;;16.00;42.00;;;;;;4995163;28;20198;-63
2023/01/26 11:30:48;;;;;;;4.10;3.70;;;16.10;42.00;;;;;;4994138;28;20738;-64
2023/01/26 11:33:25;;;;;;;4.22;3.83;;;16.10;42.00;;;;;;4994999;28;20213;-64
2023/01/26 11:35:55;;;;;;;4.60;3.80;;;16.10;41.80;;;;;;4977467;28;20232;-63
2023/01/26 11:38:29;;;;;;;5.00;4.15;;;16.10;41.50;;;;;;4994739;28;20194;-63
2023/01/26 11:41:00;;;;;;;4.45;4.05;;;16.10;41.40;;;;;;4977268;28;20247;-64
2023/01/26 11:43:45;;;;;;;5.05;4.03;;;16.20;41.70;;;;;;4994708;28;20225;-63
2023/01/26 11:46:21;;;;;;;4.47;4.07;;;16.10;41.50;;;;;;4994730;28;20184;-63
2023/01/26 11:48:55;;;;;;;4.55;3.88;;;16.10;41.60;;;;;;4994672;28;20207;-63
2023/01/26 11:51:29;;;;;;;4.40;4.00;;;16.10;41.50;;;;;;4994769;28;20195;-63
2023/01/26 11:54:04;;;;;;;4.07;3.55;;;16.10;41.60;;;;;;4994783;28;20695;-63
2023/01/26 11:56:37;;;;;;;4.65;3.78;;;16.10;41.60;;;;;;4976892;28;20192;-63
2023/01/26 11:59:09;;;;;;;4.47;3.90;;;16.20;41.70;;;;;;4994492;28;20254;-63
2023/01/26 12:01:39;;;;;;;4.20;3.80;;;16.20;41.60;;;;;;4994405;28;20616;-63
2023/01/26 12:04:11;;;;;;;4.43;4.00;;;16.20;41.70;;;;;;4976897;28;20217;-63
2023/01/26 12:06:40;;;;;;;4.63;4.20;;;16.10;41.30;;;;;;5004336;23;20731;-54
2023/01/26 12:09:09;;;;;;;4.65;3.72;;;16.10;41.40;;;;;;5035200;28;20211;-54
2023/01/26 12:11:40;;;;;;;4.43;3.78;;;16.10;41.40;;;;;;5053083;28;20233;-54
2023/01/26 12:14:15;;;;;;;4.18;3.72;;;16.20;41.60;;;;;;5053098;28;20253;-54
2023/01/26 12:17:21;;;;;;;4.57;4.05;;;16.20;41.70;;;;;;5053036;28;20179;-54
2023/01/26 12:19:52;;;;;;;4.55;4.13;;;16.20;41.50;;;;;;5048416;28;20261;-54
2023/01/26 12:22:22;;;;;;;3.95;3.45;;;16.20;41.60;;;;;;5053089;28;20183;-54
2023/01/26 12:24:52;;;;;;;4.72;4.13;;;16.20;41.50;;;;;;5052959;28;20594;-54
2023/01/26 12:27:27;;;;;;;4.30;3.90;;;16.20;41.40;;;;;;5035844;28;20201;-53
2023/01/26 12:29:56;;;;;;;5.05;4.55;;;16.20;41.30;;;;;;5034936;28;20679;-54
2023/01/26 12:32:25;;;;;;;4.65;4.07;;;16.20;41.20;;;;;;5034949;28;20215;-54
2023/01/26 12:34:54;;;;;;;4.70;4.20;;;16.20;41.30;;;;;;5034991;28;20233;-54
2023/01/26 12:37:52;;;;;;;4.80;4.30;;;16.20;41.00;;;;;;5052781;28;20191;-54
2023/01/26 12:40:27;;;;;;;4.57;4.18;;;16.20;40.90;;;;;;5052743;28;20183;-54
2023/01/26 12:43:00;;;;;;;4.72;3.90;;;16.20;41.00;;;;;;5035480;28;20257;-54
2023/01/26 12:45:28;;;;;;;4.10;3.70;;;16.20;41.20;;;;;;5035039;28;20188;-54
2023/01/26 12:47:56;;;;;;;4.57;4.07;;;16.10;41.00;;;;;;5034774;28;20648;-54
2023/01/26 12:50:27;;;;;;;4.97;4.47;;;16.10;41.40;;;;;;5034842;28;20238;-54
2023/01/26 12:52:57;;;;;;;4.97;4.40;;;16.10;41.20;;;;;;5052695;28;20207;-54
2023/01/26 12:55:27;;;;;;;4.90;4.40;;;16.00;41.20;;;;;;5038454;28;20646;-54
2023/01/26 12:57:55;;;;;;;5.07;4.50;;;16.00;41.40;;;;;;5056678;28;20197;-54
2023/01/26 13:00:23;;;;;;;5.15;4.13;;;16.00;41.40;;;;;;5056598;28;20184;-54
2023/01/26 13:02:52;;;;;;;4.97;4.47;;;16.00;41.30;;;;;;5056568;28;20320;-54
2023/01/26 13:05:28;;;;;;;5.43;4.70;;;16.00;41.20;;;;;;5056818;28;20271;-54
2023/01/26 13:07:56;;;;;;;4.50;4.10;;;16.00;41.30;;;;;;5056565;28;20596;-54
2023/01/26 13:10:29;;;;;;;4.40;4.00;;;16.00;41.40;;;;;;5056534;28;20679;-54
2023/01/26 13:12:58;;;;;;;4.93;3.95;;;16.10;41.50;;;;;;5038575;28;20242;-53
2023/01/26 13:15:26;;;;;;;5.32;4.43;;;16.10;41.40;;;;;;5056447;28;20188;-54
2023/01/26 13:17:58;;;;;;;5.55;4.95;;;16.10;41.30;;;;;;5056369;28;20274;-53
2023/01/26 13:20:43;;;;;;;5.47;4.80;;;16.10;41.00;;;;;;5056624;28;20172;-54
2023/01/26 13:23:50;;;;;;;6.05;4.60;;;16.10;41.70;;;;;;5056815;28;20234;-54
2023/01/26 13:26:22;;;;;;;5.95;4.78;;;16.20;41.30;;;;;;5056251;28;20172;-54
2023/01/26 13:28:49;;;;;;;5.90;5.00;;;16.10;41.20;;;;;;5056122;28;20184;-54
2023/01/26 13:31:31;;;;;;;5.18;4.53;;;16.10;41.20;;;;;;5038108;28;20192;-54
2023/01/26 13:33:59;;;;;;;5.80;4.88;;;16.10;41.20;;;;;;5038268;28;20215;-54
2023/01/26 13:36:28;;;;;;;5.72;4.70;;;16.10;41.20;;;;;;5038109;28;20266;-54
2023/01/26 13:38:58;;;;;;;5.72;4.90;;;16.10;41.10;;;;;;5056064;28;20187;-53
2023/01/26 13:41:25;;;;;;;5.80;4.95;;;16.10;41.20;;;;;;5056010;28;20190;-54
2023/01/26 13:43:53;;;;;;;5.88;5.10;;;16.20;41.30;;;;;;5037996;28;20215;-54
2023/01/26 13:46:23;;;;;;;6.18;4.80;;;16.10;41.30;;;;;;5055896;28;20194;-54
2023/01/26 13:48:51;;;;;;;5.82;4.97;;;16.10;40.90;;;;;;5037899;28;20382;-54
2023/01/26 13:51:19;;;;;;;5.40;4.70;;;16.10;41.00;;;;;;5037833;28;20200;-54